createdAt,value
2022-08-25T08:06:30.013Z,11.53
2022-08-25T08:08:31.477Z,12.23
2022-08-25T08:11:05.619Z,7.27
2022-08-25T08:13:41.384Z,7.43
2022-08-25T08:16:13.461Z,7.90
2022-08-25T08:18:42.638Z,11.60
2022-08-25T08:21:41.530Z,7.67
2022-08-25T08:24:19.564Z,6.37
2022-08-25T08:26:58.914Z,7.83
2022-08-25T08:29:26.450Z,6.20
2022-08-25T08:31:53.522Z,6.07
2022-08-25T08:34:24.758Z,7.37
2022-08-25T08:36:52.530Z,6.30
2022-08-25T08:39:19.387Z,8.50
2022-08-25T08:42:23.955Z,8.10
2022-08-25T08:45:15.465Z,5.37
2022-08-25T08:47:42.317Z,5.37
2022-08-25T08:50:40.398Z,5.70
2022-08-25T08:53:21.954Z,5.50
2022-08-25T08:55:52.976Z,5.10
2022-08-25T08:58:39.971Z,5.90
2022-08-25T09:01:10.517Z,4.67
2022-08-25T09:03:39.730Z,5.03
2022-08-25T09:06:44.494Z,8.83
2022-08-25T09:09:20.663Z,6.77
2022-08-25T09:12:01.822Z,4.73
2022-08-25T09:14:53.706Z,4.00
2022-08-25T09:17:54.275Z,5.20
2022-08-25T09:21:10.633Z,5.13
2022-08-25T09:23:54.973Z,5.40
2022-08-25T09:26:27.380Z,5.27
2022-08-25T09:29:16.298Z,4.87
2022-08-25T09:31:43.559Z,5.10
2022-08-25T09:34:22.228Z,11.70
2022-08-25T09:36:52.908Z,4.80
2022-08-25T09:39:21.487Z,4.90
2022-08-25T09:42:00.150Z,5.17
2022-08-25T09:44:39.585Z,4.53
2022-08-25T09:47:13.854Z,4.63
2022-08-25T09:49:44.038Z,4.37
2022-08-25T09:52:31.698Z,4.93
2022-08-25T09:55:39.437Z,4.17
2022-08-25T09:58:24.156Z,10.57
2022-08-25T10:01:03.995Z,4.60
2022-08-25T10:03:32.350Z,4.30
2022-08-25T10:06:14.909Z,4.33
2022-08-25T10:08:44.860Z,5.90
2022-08-25T10:11:15.415Z,5.57
2022-08-25T10:13:53.154Z,3.97
2022-08-25T10:16:33.667Z,4.50
2022-08-25T10:19:10.611Z,3.30
2022-08-25T10:21:39.889Z,4.00
2022-08-25T10:24:08.560Z,4.53
2022-08-25T10:27:03.429Z,4.20
2022-08-25T10:29:57.941Z,4.30
2022-08-25T10:32:47.711Z,3.77
2022-08-25T10:35:26.433Z,4.10
2022-08-25T10:38:36.235Z,5.17
2022-08-25T10:41:44.942Z,5.03
2022-08-25T10:44:47.212Z,5.00
2022-08-25T10:47:48.309Z,4.13
2022-08-25T10:50:24.381Z,4.33
2022-08-25T10:53:04.785Z,4.70
2022-08-25T10:56:07.347Z,5.63
2022-08-25T10:58:43.370Z,5.47
2022-08-25T11:01:28.833Z,7.73
2022-08-25T11:04:08.087Z,5.03
2022-08-25T11:06:47.568Z,5.17
2022-08-25T11:09:21.416Z,5.50
2022-08-25T11:12:13.618Z,5.83
2022-08-25T11:14:50.840Z,6.53
2022-08-25T11:17:24.900Z,6.37
2022-08-25T11:20:01.619Z,5.60
2022-08-25T11:22:40.774Z,5.90
2022-08-25T11:25:35.087Z,5.27
2022-08-25T11:28:20.818Z,9.43
2022-08-25T11:30:51.407Z,9.90
2022-08-25T11:33:19.965Z,12.80
2022-08-25T11:35:51.154Z,6.83
2022-08-25T11:38:24.995Z,4.97
2022-08-25T11:41:30.455Z,5.47
2022-08-25T11:44:32.236Z,5.33
2022-08-25T11:47:02.133Z,5.03
2022-08-25T11:50:06.331Z,4.30
2022-08-25T11:52:33.142Z,5.80
2022-08-25T11:55:15.703Z,5.80
2022-08-25T11:57:44.576Z,4.77
2022-08-25T12:00:17.482Z,6.07
2022-08-25T12:02:47.805Z,9.87
2022-08-25T12:05:21.995Z,6.13
2022-08-25T12:08:22.395Z,8.47
2022-08-25T12:11:07.196Z,5.47
2022-08-25T12:13:51.324Z,7.40
2022-08-25T12:16:36.775Z,9.20
2022-08-25T12:19:36.249Z,7.13
2022-08-25T12:22:03.342Z,8.47
2022-08-25T12:24:48.129Z,4.97
2022-08-25T12:27:28.144Z,13.17
2022-08-25T12:30:21.260Z,12.93
2022-08-25T12:33:20.472Z,11.93
2022-08-25T12:36:06.937Z,9.00
2022-08-25T12:38:42.492Z,11.00
2022-08-25T12:41:27.484Z,12.03
2022-08-25T12:44:32.175Z,8.23
2022-08-25T12:47:14.279Z,16.60
2022-08-25T12:49:41.400Z,11.27
2022-08-25T12:52:21.042Z,9.23
2022-08-25T12:54:50.345Z,9.90
2022-08-25T12:57:43.404Z,14.70
2022-08-25T13:03:06.129Z,10.80
2022-08-25T13:05:48.389Z,8.93
2022-08-25T13:08:37.093Z,12.47
2022-08-25T13:11:17.372Z,7.80
2022-08-25T13:13:51.576Z,8.83
2022-08-25T13:16:25.592Z,8.67
2022-08-25T13:18:59.182Z,10.63
2022-08-25T13:21:37.742Z,9.70
2022-08-25T13:24:09.250Z,9.37
2022-08-25T13:26:48.159Z,11.83
2022-08-25T13:29:21.374Z,5.83
2022-08-25T13:31:59.322Z,9.67
2022-08-25T13:34:34.741Z,10.03
2022-08-25T13:37:31.229Z,14.53
2022-08-25T13:40:10.236Z,13.03
2022-08-25T13:42:42.418Z,12.87
2022-08-25T13:45:21.507Z,12.30
2022-08-25T13:47:55.908Z,12.53
2022-08-25T13:50:26.831Z,11.23
2022-08-25T13:53:05.890Z,15.40
2022-08-25T13:55:51.018Z,10.33
2022-08-25T13:58:45.651Z,12.27
2022-08-25T14:01:46.414Z,7.73
2022-08-25T14:04:32.651Z,9.30
2022-08-25T14:07:26.688Z,6.97
2022-08-25T14:10:30.360Z,8.00
2022-08-25T14:13:11.268Z,8.67
2022-08-25T14:15:42.456Z,8.60
2022-08-25T14:18:27.232Z,7.13
2022-08-25T14:20:55.874Z,8.03
2022-08-25T14:23:27.093Z,7.93
2022-08-25T14:25:57.469Z,11.07
2022-08-25T14:28:29.024Z,10.97
2022-08-25T14:31:08.345Z,11.30
2022-08-25T14:33:42.929Z,12.03
2022-08-25T14:36:10.420Z,13.43
2022-08-25T14:38:54.517Z,9.67
2022-08-25T14:41:25.862Z,17.30
2022-08-25T14:44:15.399Z,15.23
2022-08-25T14:46:59.539Z,17.17
2022-08-25T14:49:55.866Z,16.43
2022-08-25T14:56:16.668Z,18.80
2022-08-25T14:59:28.432Z,15.70
2022-08-25T15:02:29.627Z,11.10
2022-08-25T15:05:08.359Z,12.73
2022-08-25T15:08:10.136Z,17.50
2022-08-25T15:10:40.359Z,13.43
2022-08-25T15:13:37.605Z,18.17
2022-08-25T15:16:35.222Z,16.77
2022-08-25T15:19:54.347Z,20.87
2022-08-25T15:23:14.732Z,15.33
2022-08-25T15:26:24.210Z,20.13
2022-08-25T15:29:23.380Z,15.63
2022-08-25T15:32:32.993Z,14.93
2022-08-25T15:47:13.014Z,17.60
2022-08-25T15:50:42.626Z,19.13
2022-08-25T15:54:01.837Z,19.30
2022-08-25T15:56:28.814Z,19.33
